This is the latest recevied weather packets stored in our database for station/object WB7AAV. If no packets are shown the sender has not sent any weather packets the latest 10 day(s).
| Time | Temp. | Humidity | Pressure | Rain* | Wind** | Luminosity | Snow |
|---|---|---|---|---|---|---|---|
| 1777515609 | 6.67° C | 74% | 1020.3 hPa | 0 mm | - | - | - |
| 1777513208 | 6.67° C | 72% | 1019.8 hPa | 0 mm | - | - | - |
| 1777512908 | 6.67° C | 72% | 1019.8 hPa | 0 mm | - | - | - |
| 1777508704 | 8.33° C | 64% | 1018.9 hPa | 0 mm | - | - | - |
| 1777507804 | 8.33° C | 63% | 1018.9 hPa | 0 mm | - | - | - |
| 1777507203 | 8.33° C | 64% | 1018.9 hPa | 0 mm | - | - | - |
| 1777506908 | 8.89° C | 64% | 1018.8 hPa | 0 mm | - | - | - |
| 1777506014 | 8.89° C | 65% | 1018.6 hPa | 0 mm | - | - | - |
| 1777504203 | 8.33° C | 67% | 1018.8 hPa | 0 mm | - | - | - |
| 1777499098 | 8.33° C | 73% | 1018.7 hPa | 0 mm | - | - | - |
| 1777496397 | 10.56° C | 66% | 1018.1 hPa | 0 mm | - | - | - |
| 1777494895 | 8.33° C | 72% | 1018.3 hPa | 0 mm | - | - | - |
| 1777492794 | 8.89° C | 73% | 1018.4 hPa | 0 mm | - | - | - |
| 1777492494 | 8.89° C | 74% | 1018.4 hPa | 0 mm | - | - | - |
| 1777491892 | 8.33° C | 76% | 1018.6 hPa | 0 mm | - | - | - |
| 1777491593 | 7.78° C | 77% | 1018.7 hPa | 0 mm | - | - | - |
| 1777490093 | 7.22° C | 78% | 1018.7 hPa | 0 mm | - | - | - |
| 1777489872 | 7.22° C | 79% | 1018.6 hPa | 0.76 mm | - | - | - |
| 1777488378 | 6.67° C | 82% | 1019 hPa | 1.27 mm | - | - | - |
| 1777487692 | 6.67° C | 82% | 1019 hPa | 1.27 mm | - | - | - |
| 1777484991 | 7.22° C | 68% | 1018.8 hPa | 1.02 mm | - | - | - |
| 1777484693 | 7.78° C | 67% | 1018.7 hPa | 1.02 mm | - | - | - |
| 1777484392 | 8.33° C | 66% | 1018.6 hPa | 0.76 mm | - | - | - |
| 1777483192 | 10.56° C | 57% | 1018.3 hPa | 0 mm | - | - | - |
| 1777482893 | 11.11° C | 55% | 1018.2 hPa | 0 mm | - | - | - |
* Rain latest hour (hover to see other rain measurements)
** Current wind speed in m/s (hover to see current wind gust speed)